AAL202 KLAX-PHNL
Flight info
| Callsign | AAL202 |
|---|---|
| Flight time | N/A |
| Altitude | 34000 |
| Route | SUMMR2 DINTY DUETS R576 DADIE R576 DENNS INOYI1 |
| Aircraft | A21N/M-SDE2E3FGHIRWXY/LB1 |
Departure
| Time | 2026-05-04 08:35 |
|---|---|
| Airport | Los Angeles International Airport (KLAX) |
Arrival
| Time | N/A |
|---|---|
| Airport | Daniel K. Inouye International Airport (PHNL) |
| Time | Latitude | Longitude | Altitude | Speed | Heading |
|---|---|---|---|---|---|
| 2026-05-04 08:16 | 33.93962 | -118.40604 | 125 ft | 0 kts | 322° |
| 2026-05-04 08:24 | 33.93959 | -118.40601 | 125 ft | 2 kts | 321° |
| 2026-05-04 08:25 | 33.93951 | -118.40585 | 125 ft | 2 kts | 279° |
| 2026-05-04 08:25 | 33.93953 | -118.40566 | 125 ft | 2 kts | 245° |
| 2026-05-04 08:25 | 33.93963 | -118.40552 | 125 ft | 2 kts | 211° |
| 2026-05-04 08:25 | 33.93977 | -118.40546 | 125 ft | 1 kts | 178° |
| 2026-05-04 08:26 | 33.93984 | -118.40547 | 125 ft | 1 kts | 168° |
| 2026-05-04 08:27 | 33.93987 | -118.40548 | 125 ft | 0 kts | 171° |
| 2026-05-04 08:29 | 33.93983 | -118.40548 | 125 ft | 1 kts | 176° |
| 2026-05-04 08:29 | 33.93955 | -118.40546 | 125 ft | 5 kts | 176° |
| 2026-05-04 08:31 | 33.93863 | -118.40144 | 120 ft | 13 kts | 82° |
| 2026-05-04 08:33 | 33.93968 | -118.39132 | 108 ft | 19 kts | 83° |
| 2026-05-04 08:33 | 33.93985 | -118.38973 | 107 ft | 18 kts | 83° |
| 2026-05-04 08:35 | 33.93871 | -118.39140 | 108 ft | 106 kts | 264° |
| 2026-05-04 08:35 | 33.93753 | -118.40272 | 123 ft | 160 kts | 263° |
| 2026-05-04 08:35 | 33.93602 | -118.41704 | 605 ft | 164 kts | 263° |
| 2026-05-04 08:35 | 33.93494 | -118.42986 | 1378 ft | 154 kts | 271° |
| 2026-05-04 08:37 | 33.94050 | -118.39681 | 3073 ft | 233 kts | 185° |
| 2026-05-04 08:37 | 33.92489 | -118.40348 | 3348 ft | 240 kts | 224° |
| 2026-05-04 08:37 | 33.91615 | -118.42105 | 3635 ft | 250 kts | 262° |
| 2026-05-04 08:38 | 33.91572 | -118.44256 | 4149 ft | 255 kts | 272° |
| 2026-05-04 08:38 | 33.91646 | -118.46414 | 4758 ft | 257 kts | 272° |
| 2026-05-04 08:38 | 33.91702 | -118.48606 | 5385 ft | 259 kts | 271° |
| 2026-05-04 08:40 | 33.91787 | -118.64598 | 9430 ft | 271 kts | 268° |
| 2026-05-04 08:40 | 33.91778 | -118.66901 | 9984 ft | 272 kts | 268° |
| 2026-05-04 08:40 | 33.91767 | -118.69210 | 10354 ft | 280 kts | 267° |
| 2026-05-04 08:41 | 33.91755 | -118.71717 | 10605 ft | 292 kts | 267° |
| 2026-05-04 08:41 | 33.91740 | -118.74279 | 10840 ft | 305 kts | 267° |
| 2026-05-04 08:41 | 33.91728 | -118.76870 | 11064 ft | 316 kts | 267° |
| 2026-05-04 08:41 | 33.91717 | -118.79560 | 11281 ft | 327 kts | 267° |
| 2026-05-04 08:42 | 33.91702 | -118.82477 | 11501 ft | 339 kts | 267° |
| 2026-05-04 08:42 | 33.91760 | -118.85385 | 11710 ft | 350 kts | 269° |
| 2026-05-04 08:42 | 33.91849 | -118.88453 | 11923 ft | 360 kts | 269° |
| 2026-05-04 08:42 | 33.91948 | -118.91590 | 12326 ft | 364 kts | 269° |
| 2026-05-04 08:43 | 33.92039 | -118.94622 | 12818 ft | 365 kts | 269° |
| 2026-05-04 08:43 | 33.92142 | -118.97796 | 13333 ft | 365 kts | 269° |
| 2026-05-04 08:43 | 33.92556 | -119.00901 | 13754 ft | 373 kts | 280° |
| 2026-05-04 08:43 | 33.93468 | -119.03867 | 14139 ft | 381 kts | 290° |
| 2026-05-04 08:44 | 33.94797 | -119.06662 | 14577 ft | 385 kts | 296° |
| 2026-05-04 08:44 | 33.96214 | -119.09389 | 15047 ft | 385 kts | 296° |
| 2026-05-04 08:46 | 34.09783 | -119.26193 | 17560 ft | 414 kts | 316° |
| 2026-05-04 08:46 | 34.12182 | -119.28244 | 17959 ft | 413 kts | 316° |
| 2026-05-04 08:46 | 34.14654 | -119.30357 | 18385 ft | 411 kts | 316° |
| 2026-05-04 08:46 | 34.17157 | -119.32508 | 18602 ft | 416 kts | 315° |
| 2026-05-04 08:47 | 34.19572 | -119.34592 | 18881 ft | 418 kts | 316° |
| 2026-05-04 08:47 | 34.21978 | -119.36663 | 19222 ft | 418 kts | 315° |
| 2026-05-04 08:47 | 34.24360 | -119.38727 | 19465 ft | 420 kts | 315° |
| 2026-05-04 08:47 | 34.26826 | -119.40854 | 19750 ft | 421 kts | 316° |
| 2026-05-04 08:48 | 34.29402 | -119.43085 | 20033 ft | 423 kts | 316° |
| 2026-05-04 08:48 | 34.31861 | -119.45211 | 20245 ft | 426 kts | 315° |
| 2026-05-04 08:48 | 34.34563 | -119.47554 | 20530 ft | 428 kts | 316° |
| 2026-05-04 08:48 | 34.37042 | -119.49725 | 20853 ft | 424 kts | 313° |
| 2026-05-04 08:49 | 34.39040 | -119.52282 | 20993 ft | 406 kts | 295° |
| 2026-05-04 08:50 | 34.39835 | -119.71603 | 23028 ft | 365 kts | 260° |
| 2026-05-04 08:50 | 34.39620 | -119.74700 | 23231 ft | 366 kts | 260° |
| 2026-05-04 08:51 | 34.39390 | -119.77939 | 23431 ft | 368 kts | 261° |
| 2026-05-04 08:51 | 34.39165 | -119.81125 | 23660 ft | 369 kts | 260° |
| 2026-05-04 08:51 | 34.38935 | -119.84323 | 23861 ft | 370 kts | 260° |
| 2026-05-04 08:51 | 34.38711 | -119.87482 | 24057 ft | 372 kts | 259° |
| 2026-05-04 08:52 | 34.38479 | -119.90733 | 24268 ft | 373 kts | 259° |
| 2026-05-04 08:52 | 34.38251 | -119.93901 | 24467 ft | 374 kts | 260° |
| 2026-05-04 08:52 | 34.38016 | -119.97128 | 24716 ft | 373 kts | 259° |
| 2026-05-04 08:52 | 34.37789 | -120.00343 | 24924 ft | 374 kts | 260° |
| 2026-05-04 08:53 | 34.37549 | -120.03568 | 25074 ft | 376 kts | 259° |
| 2026-05-04 08:54 | 34.35881 | -120.26210 | 26386 ft | 379 kts | 260° |
| 2026-05-04 08:55 | 34.35634 | -120.29535 | 26511 ft | 381 kts | 259° |
| 2026-05-04 08:55 | 34.35388 | -120.32817 | 26663 ft | 381 kts | 260° |
| 2026-05-04 08:55 | 34.35149 | -120.36003 | 26847 ft | 381 kts | 259° |
| 2026-05-04 08:55 | 34.34900 | -120.39357 | 27023 ft | 381 kts | 259° |
| 2026-05-04 08:57 | 34.28730 | -120.60730 | 28426 ft | 366 kts | 242° |
| 2026-05-04 09:01 | 34.13481 | -120.99138 | 31849 ft | 332 kts | 242° |
| 2026-05-04 09:01 | 34.12447 | -121.01732 | 32125 ft | 328 kts | 243° |
| 2026-05-04 09:01 | 34.11407 | -121.04326 | 32369 ft | 324 kts | 241° |
| 2026-05-04 09:01 | 34.10396 | -121.06841 | 32574 ft | 322 kts | 242° |
| 2026-05-04 09:02 | 34.09397 | -121.09353 | 32727 ft | 321 kts | 242° |
| 2026-05-04 09:02 | 34.08391 | -121.11851 | 32886 ft | 319 kts | 242° |
| 2026-05-04 09:02 | 34.07401 | -121.14294 | 33044 ft | 318 kts | 242° |
| 2026-05-04 09:02 | 34.06412 | -121.16773 | 33246 ft | 316 kts | 243° |
| 2026-05-04 09:03 | 34.05459 | -121.19140 | 33336 ft | 317 kts | 242° |
| 2026-05-04 09:03 | 34.04493 | -121.21538 | 33448 ft | 316 kts | 243° |
| 2026-05-04 09:03 | 34.03539 | -121.23919 | 33575 ft | 316 kts | 242° |
| 2026-05-04 09:04 | 34.01622 | -121.28678 | 33719 ft | 317 kts | 242° |
| 2026-05-04 09:04 | 34.00656 | -121.31051 | 33853 ft | 316 kts | 242° |
| 2026-05-04 09:04 | 33.99696 | -121.33429 | 33940 ft | 316 kts | 243° |
| 2026-05-04 09:05 | 33.97779 | -121.38190 | 34002 ft | 317 kts | 242° |
| 2026-05-04 09:05 | 33.95824 | -121.43011 | 34015 ft | 317 kts | 243° |
| 2026-05-04 09:06 | 33.93885 | -121.47803 | 34006 ft | 315 kts | 242° |
| 2026-05-04 09:08 | 33.86005 | -121.67175 | 34017 ft | 317 kts | 242° |
| 2026-05-04 09:08 | 33.83939 | -121.72215 | 34014 ft | 317 kts | 243° |
| 2026-05-04 09:09 | 33.81914 | -121.77166 | 34020 ft | 315 kts | 242° |
| 2026-05-04 09:09 | 33.79966 | -121.81927 | 34018 ft | 315 kts | 242° |
| 2026-05-04 09:10 | 33.77928 | -121.86901 | 34018 ft | 316 kts | 242° |
| 2026-05-04 09:10 | 33.75922 | -121.91784 | 34016 ft | 316 kts | 243° |
| 2026-05-04 09:11 | 33.73892 | -121.96748 | 34021 ft | 316 kts | 242° |
| 2026-05-04 09:11 | 33.71859 | -122.01671 | 34022 ft | 316 kts | 242° |
| 2026-05-04 09:12 | 33.69850 | -122.06518 | 34017 ft | 317 kts | 243° |
| 2026-05-04 09:14 | 33.61752 | -122.26118 | 34021 ft | 319 kts | 242° |
| 2026-05-04 09:14 | 33.59730 | -122.30974 | 34026 ft | 320 kts | 243° |
| 2026-05-04 09:15 | 33.57749 | -122.35733 | 34006 ft | 320 kts | 243° |
| 2026-05-04 09:15 | 33.55737 | -122.40563 | 34009 ft | 319 kts | 242° |
| 2026-05-04 09:17 | 33.47387 | -122.63243 | 34016 ft | 323 kts | 250° |
| 2026-05-04 09:18 | 33.46229 | -122.68610 | 34018 ft | 325 kts | 251° |
| 2026-05-04 09:18 | 33.45093 | -122.74043 | 34021 ft | 325 kts | 251° |
| 2026-05-04 09:19 | 33.43963 | -122.79426 | 34022 ft | 326 kts | 251° |
| 2026-05-04 09:19 | 33.42852 | -122.84787 | 34019 ft | 327 kts | 252° |
| 2026-05-04 09:20 | 33.41731 | -122.90137 | 34022 ft | 324 kts | 252° |
| 2026-05-04 09:20 | 33.40609 | -122.95573 | 34016 ft | 326 kts | 250° |
| 2026-05-04 09:21 | 33.39468 | -123.01049 | 34022 ft | 326 kts | 250° |
| 2026-05-04 09:21 | 33.38329 | -123.06446 | 34024 ft | 326 kts | 252° |
| 2026-05-04 09:22 | 33.37195 | -123.11889 | 34023 ft | 326 kts | 251° |
| 2026-05-04 09:22 | 33.36060 | -123.17308 | 34023 ft | 326 kts | 250° |
| 2026-05-04 09:23 | 33.34909 | -123.22761 | 34024 ft | 327 kts | 252° |
| 2026-05-04 09:23 | 33.33773 | -123.28137 | 34028 ft | 326 kts | 251° |
| 2026-05-04 09:25 | 33.29177 | -123.49794 | 34029 ft | 327 kts | 251° |
| 2026-05-04 09:26 | 33.28014 | -123.55274 | 34026 ft | 326 kts | 252° |
| 2026-05-04 09:26 | 33.26863 | -123.60663 | 34026 ft | 326 kts | 251° |
| 2026-05-04 09:27 | 33.25700 | -123.66065 | 34038 ft | 326 kts | 250° |
| 2026-05-04 09:27 | 33.24538 | -123.71479 | 34032 ft | 328 kts | 251° |
| 2026-05-04 09:28 | 33.23767 | -123.75078 | 34032 ft | 329 kts | 250° |